createdAt,value
2018-05-16T00:01:21.791Z,100874.14
2018-05-16T00:03:58.612Z,100887.20
2018-05-16T00:06:29.122Z,100887.92
2018-05-16T00:09:11.624Z,100893.14
2018-05-16T00:11:44.454Z,100890.95
2018-05-16T00:14:15.680Z,100895.82
2018-05-16T00:16:52.563Z,100898.13
2018-05-16T00:19:23.699Z,100902.33
2018-05-16T00:22:06.334Z,100909.38
2018-05-16T00:24:37.233Z,100905.28
2018-05-16T00:29:51.483Z,100904.04
2018-05-16T00:32:23.416Z,100902.20
2018-05-16T00:34:54.260Z,100901.64
2018-05-16T00:37:28.006Z,100899.64
2018-05-16T00:40:10.364Z,100897.86
2018-05-16T00:42:40.812Z,100904.83
2018-05-16T00:45:25.341Z,100899.77
2018-05-16T00:47:55.944Z,100893.03
2018-05-16T00:50:27.664Z,100899.90
2018-05-16T00:53:08.596Z,100903.63
2018-05-16T00:55:39.377Z,100906.42
2018-05-16T00:58:10.063Z,100905.02
2018-05-16T01:00:40.618Z,100907.59
2018-05-16T01:03:15.270Z,100908.16
2018-05-16T01:05:46.724Z,100907.05
2018-05-16T01:08:19.195Z,100908.15
2018-05-16T01:10:50.916Z,100906.55
2018-05-16T01:13:21.337Z,100908.28
2018-05-16T01:15:52.270Z,100900.20
2018-05-16T01:18:30.644Z,100915.61
2018-05-16T01:21:06.600Z,100919.98
2018-05-16T01:23:36.880Z,100919.19
2018-05-16T01:26:07.615Z,100922.42
2018-05-16T01:28:39.820Z,100925.90
2018-05-16T01:31:10.819Z,100925.81
2018-05-16T01:33:41.774Z,100931.66
2018-05-16T01:36:12.276Z,100938.42
2018-05-16T01:38:43.043Z,100938.64
2018-05-16T01:41:13.298Z,100940.87
2018-05-16T01:43:43.998Z,100945.06
2018-05-16T01:46:16.129Z,100940.50
2018-05-16T01:48:56.032Z,100940.66
2018-05-16T01:51:30.182Z,100939.52
2018-05-16T01:54:01.063Z,100957.59
2018-05-16T01:56:31.650Z,100953.11
2018-05-16T01:59:03.705Z,100954.97
2018-05-16T02:01:34.749Z,100943.19
2018-05-16T02:04:07.789Z,100937.40
2018-05-16T02:06:39.058Z,100932.76
2018-05-16T02:09:10.483Z,100933.88
2018-05-16T02:11:45.971Z,100940.00
2018-05-16T02:14:17.377Z,100942.68
2018-05-16T02:16:49.911Z,100933.99
2018-05-16T02:19:23.555Z,100939.73
2018-05-16T02:21:54.738Z,100942.55
2018-05-16T02:24:29.439Z,100944.76
2018-05-16T02:27:06.822Z,100937.49
2018-05-16T02:29:39.566Z,100937.02
2018-05-16T02:32:15.710Z,100941.22
2018-05-16T02:34:47.856Z,100943.17
2018-05-16T02:37:20.863Z,100944.60
2018-05-16T02:39:52.463Z,100945.92
2018-05-16T02:42:24.896Z,100941.20
2018-05-16T02:44:55.219Z,100940.04
2018-05-16T02:47:26.135Z,100943.34
2018-05-16T02:49:57.241Z,100928.92
2018-05-16T02:52:29.459Z,100931.13
2018-05-16T02:55:00.185Z,100927.91
2018-05-16T02:57:30.592Z,100913.94
2018-05-16T03:00:00.963Z,100922.43
2018-05-16T03:02:39.863Z,100922.27
2018-05-16T03:05:10.614Z,100921.48
2018-05-16T03:07:44.403Z,100926.42
2018-05-16T03:10:15.834Z,100928.64
2018-05-16T03:12:47.002Z,100940.23
2018-05-16T03:15:22.446Z,100938.93
2018-05-16T03:17:52.970Z,100946.92
2018-05-16T03:20:30.708Z,100944.16
2018-05-16T03:23:02.575Z,100930.38
2018-05-16T03:25:33.372Z,100946.81
2018-05-16T03:28:08.871Z,100947.34
2018-05-16T03:30:40.472Z,100941.02
2018-05-16T03:33:11.215Z,100951.48
2018-05-16T03:35:42.368Z,100946.31
2018-05-16T03:38:12.896Z,100940.14
2018-05-16T03:40:43.178Z,100945.30
2018-05-16T03:43:14.728Z,100952.89
2018-05-16T03:45:45.462Z,100954.05
2018-05-16T03:48:16.028Z,100961.23
2018-05-16T03:50:46.628Z,100962.68
2018-05-16T03:53:16.936Z,100954.24
2018-05-16T03:55:47.475Z,100947.98
2018-05-16T03:58:29.109Z,100971.98
2018-05-16T04:01:11.693Z,100968.72
2018-05-16T04:03:53.339Z,100954.39
2018-05-16T04:06:23.898Z,100965.79
2018-05-16T04:08:58.136Z,100971.50
2018-05-16T04:11:29.106Z,100964.95
2018-05-16T04:13:59.784Z,100974.14
2018-05-16T04:16:30.375Z,100975.69
2018-05-16T04:21:42.515Z,100968.89
2018-05-16T04:24:19.165Z,100969.88
2018-05-16T04:26:50.218Z,100976.18
2018-05-16T04:29:20.718Z,100974.59
2018-05-16T04:31:51.893Z,100986.78
2018-05-16T04:34:23.553Z,100972.85
2018-05-16T04:36:54.350Z,100987.84
2018-05-16T04:39:25.586Z,100982.86
2018-05-16T04:41:57.574Z,100991.29
2018-05-16T04:44:31.404Z,100997.66
2018-05-16T04:47:02.682Z,101010.47
2018-05-16T04:49:38.258Z,101019.69
2018-05-16T04:52:14.497Z,101031.61
2018-05-16T04:54:47.212Z,101026.70
2018-05-16T04:57:19.433Z,101031.25
2018-05-16T04:59:50.025Z,101028.58
2018-05-16T05:02:21.477Z,101022.48
2018-05-16T05:04:53.289Z,101020.64
2018-05-16T05:07:23.729Z,101021.11
2018-05-16T05:09:54.278Z,101024.80
2018-05-16T05:12:24.807Z,101028.47
2018-05-16T05:14:55.879Z,101037.06
2018-05-16T05:17:26.763Z,101027.55
2018-05-16T05:19:57.370Z,101046.38
2018-05-16T05:22:28.108Z,101045.61
2018-05-16T05:24:59.174Z,101039.64
2018-05-16T05:27:29.928Z,101039.27
2018-05-16T05:30:03.640Z,101048.42
2018-05-16T05:32:34.179Z,101036.98
2018-05-16T05:35:05.474Z,101047.13
2018-05-16T05:37:35.987Z,101047.97
2018-05-16T05:40:06.457Z,101053.31
2018-05-16T05:42:36.938Z,101052.56
2018-05-16T05:45:08.213Z,101060.98
2018-05-16T05:47:39.231Z,101057.31
2018-05-16T05:50:11.087Z,101059.98
2018-05-16T05:52:46.002Z,101054.20
2018-05-16T05:55:16.988Z,101059.07
2018-05-16T05:57:47.351Z,101055.11
2018-05-16T06:00:25.619Z,101053.70
2018-05-16T06:05:28.188Z,101056.12
2018-05-16T06:07:58.536Z,101060.63
2018-05-16T06:10:29.219Z,101061.59
2018-05-16T06:13:00.267Z,101061.29
2018-05-16T06:15:31.490Z,101059.27
2018-05-16T06:18:02.838Z,101057.11
2018-05-16T06:20:35.163Z,101065.88
2018-05-16T06:25:48.093Z,101064.11
2018-05-16T06:28:18.819Z,101052.44
2018-05-16T06:30:56.845Z,101065.67
2018-05-16T06:33:30.262Z,101072.58
2018-05-16T06:36:02.963Z,101067.93
2018-05-16T06:38:38.805Z,101067.84
2018-05-16T06:41:12.929Z,101074.43
2018-05-16T06:43:43.447Z,101074.21
2018-05-16T06:46:16.756Z,101072.66
2018-05-16T06:48:56.081Z,101074.48
2018-05-16T06:51:41.570Z,101055.75
2018-05-16T06:54:17.193Z,101074.31
2018-05-16T06:56:49.760Z,101078.29
2018-05-16T06:59:27.842Z,101079.55
2018-05-16T07:02:02.507Z,101078.11
2018-05-16T07:04:40.094Z,101078.71
2018-05-16T07:07:14.021Z,101068.75
2018-05-16T07:09:46.273Z,101088.56
2018-05-16T07:12:18.645Z,101090.47
2018-05-16T07:14:49.476Z,101095.77
2018-05-16T07:17:20.939Z,101098.08
2018-05-16T07:19:52.785Z,101096.91
2018-05-16T07:22:24.133Z,101104.80
2018-05-16T07:24:55.102Z,101094.30
2018-05-16T07:27:31.830Z,101098.49
2018-05-16T07:30:19.814Z,101107.34
2018-05-16T07:32:51.094Z,101104.12
2018-05-16T07:35:23.812Z,101106.16
2018-05-16T07:37:54.668Z,101102.98
2018-05-16T07:40:39.318Z,101099.91
2018-05-16T07:43:17.447Z,101104.37
2018-05-16T07:45:49.387Z,101106.55
2018-05-16T07:48:28.413Z,101112.19
2018-05-16T07:51:01.146Z,101112.91
2018-05-16T07:53:31.918Z,101102.84
2018-05-16T07:56:04.704Z,101107.89
2018-05-16T07:58:38.588Z,101109.34
2018-05-16T08:01:15.122Z,101113.86
2018-05-16T08:03:48.267Z,101110.91
2018-05-16T08:06:28.169Z,101104.98
2018-05-16T08:09:00.583Z,101119.23
2018-05-16T08:11:33.857Z,101119.95
2018-05-16T08:14:04.779Z,101112.63
2018-05-16T08:16:38.281Z,101109.37
2018-05-16T08:19:10.425Z,101111.02
2018-05-16T08:21:43.148Z,101122.05
2018-05-16T08:24:17.564Z,101118.58
2018-05-16T08:26:50.666Z,101108.94
2018-05-16T08:29:22.436Z,101114.16
2018-05-16T08:31:53.641Z,101107.50
2018-05-16T08:34:47.053Z,101110.54
2018-05-16T08:37:19.526Z,101114.88
2018-05-16T08:39:50.859Z,101117.95
2018-05-16T08:42:22.507Z,101108.49
2018-05-16T08:44:54.271Z,101119.05
2018-05-16T08:47:29.326Z,101120.64
2018-05-16T08:50:01.684Z,101099.65
2018-05-16T08:52:32.391Z,101118.75
2018-05-16T08:55:09.031Z,101136.01
2018-05-16T08:57:42.592Z,101133.62
2018-05-16T09:00:21.142Z,101135.16
2018-05-16T09:02:52.216Z,101136.00
2018-05-16T09:05:23.548Z,101133.05
2018-05-16T09:07:54.693Z,101145.82
2018-05-16T09:10:26.196Z,101137.84
2018-05-16T09:13:02.169Z,101136.53
2018-05-16T09:15:44.347Z,101149.73
2018-05-16T09:18:16.272Z,101146.13
2018-05-16T09:20:47.010Z,101134.00
2018-05-16T09:26:07.776Z,101147.48
2018-05-16T09:28:39.067Z,101141.06
2018-05-16T09:31:09.543Z,101147.27
2018-05-16T09:33:43.665Z,101144.41
2018-05-16T09:36:15.086Z,101142.25
2018-05-16T09:38:46.334Z,101128.75
2018-05-16T09:41:18.747Z,101110.65
2018-05-16T09:43:50.588Z,101133.44
2018-05-16T09:46:21.192Z,101132.85
2018-05-16T09:48:52.462Z,101118.26
2018-05-16T09:51:23.489Z,101127.63
2018-05-16T09:53:57.586Z,101128.78
2018-05-16T09:56:35.268Z,101125.42
2018-05-16T09:59:08.989Z,101130.88
2018-05-16T10:01:40.043Z,101123.12
2018-05-16T10:04:12.910Z,101138.19
2018-05-16T10:06:48.838Z,101133.84
2018-05-16T10:09:24.243Z,101143.09
2018-05-16T10:11:54.843Z,101145.65
2018-05-16T10:14:27.843Z,101149.91
2018-05-16T10:17:00.334Z,101147.80
2018-05-16T10:22:07.653Z,101157.78
2018-05-16T10:24:39.821Z,101157.59
2018-05-16T10:27:27.247Z,101157.58
2018-05-16T10:30:05.865Z,101145.49
2018-05-16T10:32:51.025Z,101149.80
2018-05-16T10:35:22.591Z,101146.35
2018-05-16T10:37:54.148Z,101156.01
2018-05-16T10:41:28.738Z,101140.72
2018-05-16T10:44:01.666Z,101127.25
2018-05-16T10:46:33.673Z,101153.59
2018-05-16T10:49:05.350Z,101157.81
2018-05-16T10:51:36.863Z,101157.56
2018-05-16T10:54:07.365Z,101158.70
2018-05-16T10:56:37.989Z,101168.87
2018-05-16T10:59:09.322Z,101174.59
2018-05-16T11:01:40.603Z,101172.36
2018-05-16T11:04:11.940Z,101177.50
2018-05-16T11:06:53.562Z,101182.35
2018-05-16T11:09:25.561Z,101175.02
2018-05-16T11:11:57.455Z,101171.80
2018-05-16T11:14:29.746Z,101166.16
2018-05-16T11:17:00.606Z,101173.55
2018-05-16T11:19:31.640Z,101168.56
2018-05-16T11:22:03.583Z,101174.12
2018-05-16T11:24:40.491Z,101166.45
2018-05-16T11:27:13.477Z,101172.05
2018-05-16T11:29:45.426Z,101163.20
2018-05-16T11:32:21.486Z,101163.14
2018-05-16T11:34:53.429Z,101164.06
2018-05-16T11:40:11.867Z,101160.71
2018-05-16T11:45:29.388Z,101161.91
2018-05-16T11:48:00.267Z,101169.14
2018-05-16T11:50:31.178Z,101169.77
2018-05-16T11:53:01.756Z,101179.37
2018-05-16T11:55:33.716Z,101171.48
2018-05-16T11:58:04.343Z,101167.59
2018-05-16T12:00:36.030Z,101168.14
2018-05-16T12:03:07.255Z,101168.26
2018-05-16T12:05:37.809Z,101178.50
2018-05-16T12:08:16.113Z,101176.75
2018-05-16T12:10:48.980Z,101182.20
2018-05-16T12:13:22.668Z,101183.75
2018-05-16T12:15:54.493Z,101190.70
2018-05-16T12:18:25.561Z,101180.58
2018-05-16T12:21:11.059Z,101184.02
2018-05-16T12:23:57.524Z,101178.44
2018-05-16T12:26:41.340Z,101187.30
2018-05-16T12:29:16.114Z,101193.89
2018-05-16T12:31:47.391Z,101197.38
2018-05-16T12:34:18.424Z,101189.67
2018-05-16T12:36:50.057Z,101186.53
2018-05-16T12:39:21.928Z,101201.69
2018-05-16T12:45:09.195Z,101207.98
2018-05-16T12:47:45.489Z,101219.48
2018-05-16T12:50:18.728Z,101202.20
2018-05-16T12:53:03.483Z,101219.45
2018-05-16T12:55:35.628Z,101219.98
2018-05-16T12:58:08.305Z,101217.93
2018-05-16T13:00:39.528Z,101211.30
2018-05-16T13:03:10.242Z,101205.16
2018-05-16T13:05:42.823Z,101204.80
2018-05-16T13:08:26.773Z,101216.13
2018-05-16T13:11:01.733Z,101205.19
2018-05-16T13:13:34.048Z,101197.81
2018-05-16T13:16:06.664Z,101190.09
2018-05-16T13:18:38.925Z,101197.38
2018-05-16T13:21:09.993Z,101193.01
2018-05-16T13:23:41.210Z,101186.41
2018-05-16T13:26:12.201Z,101205.76
2018-05-16T13:28:44.743Z,101205.52
2018-05-16T13:31:16.908Z,101205.30
2018-05-16T13:33:48.078Z,101197.73
2018-05-16T13:36:20.856Z,101199.42
2018-05-16T13:38:52.015Z,101190.23
2018-05-16T13:41:23.156Z,101205.09
2018-05-16T13:43:55.668Z,101210.17
2018-05-16T13:46:29.125Z,101204.25
2018-05-16T13:49:16.026Z,101207.84
2018-05-16T13:51:46.452Z,101206.36
2018-05-16T13:54:18.126Z,101190.23
2018-05-16T13:56:48.511Z,101207.30
2018-05-16T13:59:19.507Z,101213.84
2018-05-16T14:01:50.646Z,101210.70
2018-05-16T14:04:21.543Z,101193.58
2018-05-16T14:07:03.912Z,101196.70
2018-05-16T14:09:36.523Z,101196.92
2018-05-16T14:12:16.204Z,101200.11
2018-05-16T14:14:49.870Z,101195.44
2018-05-16T14:17:22.804Z,101186.87
2018-05-16T14:19:54.082Z,101179.80
2018-05-16T14:22:28.133Z,101177.61
2018-05-16T14:25:04.145Z,101180.55
2018-05-16T14:27:41.037Z,101171.36
2018-05-16T14:30:15.479Z,101171.29
2018-05-16T14:33:04.308Z,101163.97
2018-05-16T14:35:42.889Z,101161.52
2018-05-16T14:38:20.186Z,101153.70
2018-05-16T14:40:51.386Z,101147.53
2018-05-16T14:43:34.130Z,101131.25
2018-05-16T14:46:08.593Z,101130.14
2018-05-16T14:48:41.581Z,101150.31
2018-05-16T14:51:13.155Z,101131.53
2018-05-16T14:53:45.964Z,101133.44
2018-05-16T14:56:17.254Z,101126.27
2018-05-16T14:58:47.868Z,101141.25
2018-05-16T15:01:19.428Z,101139.62
2018-05-16T15:03:56.546Z,101143.47
2018-05-16T15:06:27.584Z,101145.52
2018-05-16T15:09:07.090Z,101125.28
2018-05-16T15:11:38.549Z,101141.83
2018-05-16T15:14:15.973Z,101139.34
2018-05-16T15:16:48.208Z,101134.33
2018-05-16T15:19:19.004Z,101128.20
2018-05-16T15:21:54.378Z,101109.05
2018-05-16T15:24:26.280Z,101131.91
2018-05-16T15:27:00.816Z,101123.45
2018-05-16T15:29:35.472Z,101116.88
2018-05-16T15:32:12.123Z,101092.73
2018-05-16T15:37:29.588Z,101097.23
2018-05-16T15:40:07.300Z,101080.16
2018-05-16T15:42:42.427Z,101073.95
2018-05-16T15:45:22.830Z,101078.20
2018-05-16T15:47:59.195Z,101075.70
2018-05-16T15:50:32.313Z,101082.50
2018-05-16T15:53:22.852Z,101070.27
2018-05-16T15:56:14.804Z,101086.00
2018-05-16T16:01:49.503Z,101057.96
2018-05-16T16:04:30.539Z,101064.63
2018-05-16T16:07:06.545Z,101064.59
2018-05-16T16:09:41.511Z,101071.13
2018-05-16T16:12:24.686Z,101069.12
2018-05-16T16:15:22.477Z,101072.19
2018-05-16T16:17:53.559Z,101082.27
2018-05-16T16:20:26.293Z,101084.20
2018-05-16T16:23:03.811Z,101076.12
2018-05-16T16:25:57.857Z,101077.84
2018-05-16T16:28:31.092Z,101077.73
2018-05-16T16:31:05.555Z,101081.22
2018-05-16T16:33:41.704Z,101084.58
2018-05-16T16:36:19.795Z,101087.41
2018-05-16T16:39:02.108Z,101091.06
2018-05-16T16:44:42.492Z,101097.34
2018-05-16T16:47:18.609Z,101098.39
2018-05-16T16:49:55.846Z,101101.77
2018-05-16T16:52:36.933Z,101104.73
2018-05-16T16:55:15.204Z,101101.83
2018-05-16T16:57:50.349Z,101114.55
2018-05-16T17:00:26.600Z,101129.29
2018-05-16T17:03:09.472Z,101118.65
2018-05-16T17:05:42.656Z,101133.27
2018-05-16T17:08:15.292Z,101123.05
2018-05-16T17:10:49.011Z,101137.39
2018-05-16T17:13:20.596Z,101105.72
2018-05-16T17:15:52.994Z,101134.98
2018-05-16T17:18:31.226Z,101145.59
2018-05-16T17:21:04.767Z,101151.56
2018-05-16T17:23:40.283Z,101164.57
2018-05-16T17:26:21.450Z,101150.12
2018-05-16T17:29:09.902Z,101165.04
2018-05-16T17:31:45.746Z,101193.75
2018-05-16T17:36:57.154Z,101209.67
2018-05-16T17:39:29.335Z,101223.00
2018-05-16T17:44:40.947Z,101165.92
2018-05-16T17:47:19.415Z,101175.68
2018-05-16T17:49:53.606Z,101187.83
2018-05-16T17:52:28.691Z,101194.59
2018-05-16T17:54:59.785Z,101195.53
2018-05-16T17:57:42.466Z,101205.44
2018-05-16T18:00:21.770Z,101204.42
2018-05-16T18:02:53.578Z,101219.29
2018-05-16T18:05:34.608Z,101218.41
2018-05-16T18:08:17.055Z,101220.50
2018-05-16T18:10:52.936Z,101239.47
2018-05-16T18:17:52.044Z,101229.33
2018-05-16T18:20:23.662Z,101266.52
2018-05-16T18:23:07.138Z,101263.28
2018-05-16T18:25:39.600Z,101266.54
2018-05-16T18:28:26.366Z,101261.81
2018-05-16T18:31:06.707Z,101262.80
2018-05-16T18:36:37.386Z,101344.49
2018-05-16T18:39:12.487Z,101352.42
2018-05-16T18:42:20.146Z,101354.88
2018-05-16T18:47:53.480Z,101351.41
2018-05-16T18:50:26.881Z,101354.78
2018-05-16T18:52:58.751Z,101348.96
2018-05-16T18:55:31.274Z,101356.84
2018-05-16T18:58:03.279Z,101359.59
2018-05-16T19:00:34.332Z,101364.83
2018-05-16T19:03:05.843Z,101346.59
2018-05-16T19:05:43.668Z,101357.15
2018-05-16T19:08:19.136Z,101359.36
2018-05-16T19:10:53.898Z,101364.82
2018-05-16T19:13:25.766Z,101361.20
2018-05-16T19:16:05.510Z,101358.79
2018-05-16T19:18:37.522Z,101349.90
2018-05-16T19:21:18.845Z,101347.11
2018-05-16T19:24:01.938Z,101339.30
2018-05-16T19:26:35.275Z,101325.28
2018-05-16T19:29:06.360Z,101339.52
2018-05-16T19:31:45.205Z,101340.36
2018-05-16T19:34:21.633Z,101335.72
2018-05-16T19:36:52.813Z,101335.88
2018-05-16T19:39:23.984Z,101346.15
2018-05-16T19:41:55.452Z,101354.45
2018-05-16T19:44:26.193Z,101356.02
2018-05-16T19:46:57.400Z,101361.16
2018-05-16T19:49:28.677Z,101365.45
2018-05-16T19:51:59.020Z,101370.06
2018-05-16T19:54:30.562Z,101374.80
2018-05-16T19:57:01.747Z,101365.23
2018-05-16T19:59:36.710Z,101373.34
2018-05-16T20:02:09.350Z,101380.20
2018-05-16T20:04:40.008Z,101356.50
2018-05-16T20:07:10.359Z,101390.63
2018-05-16T20:10:11.494Z,101388.44
2018-05-16T20:12:43.700Z,101395.28
2018-05-16T20:15:18.183Z,101399.08
2018-05-16T20:17:49.454Z,101400.89
2018-05-16T20:20:20.208Z,101396.41
2018-05-16T20:22:54.626Z,101408.12
2018-05-16T20:25:27.397Z,101408.98
2018-05-16T20:28:11.114Z,101407.97
2018-05-16T20:30:46.420Z,101398.16
2018-05-16T20:33:18.158Z,101420.66
2018-05-16T20:35:50.128Z,101412.89
2018-05-16T20:38:20.873Z,101421.56
2018-05-16T20:40:57.066Z,101424.06
2018-05-16T20:43:28.437Z,101416.13
2018-05-16T20:45:59.834Z,101428.38
2018-05-16T20:48:31.305Z,101434.02
2018-05-16T20:51:02.101Z,101422.73
2018-05-16T20:53:41.792Z,101426.47
2018-05-16T20:56:14.310Z,101429.66
2018-05-16T20:58:46.105Z,101422.83
2018-05-16T21:01:18.346Z,101430.70
2018-05-16T21:03:51.554Z,101437.39
2018-05-16T21:06:22.613Z,101445.75
2018-05-16T21:08:53.041Z,101436.83
2018-05-16T21:11:26.554Z,101433.92
2018-05-16T21:13:59.220Z,101446.91
2018-05-16T21:16:30.654Z,101444.70
2018-05-16T21:19:01.832Z,101443.79
2018-05-16T21:21:32.169Z,101442.26
2018-05-16T21:24:05.719Z,101438.22
2018-05-16T21:26:37.081Z,101434.92
2018-05-16T21:32:03.234Z,101421.80
2018-05-16T21:34:33.713Z,101426.20
2018-05-16T21:37:05.316Z,101424.16
2018-05-16T21:39:36.786Z,101427.17
2018-05-16T21:42:08.831Z,101425.01
2018-05-16T21:44:43.268Z,101434.17
2018-05-16T21:47:18.329Z,101439.29
2018-05-16T21:49:52.048Z,101428.59
2018-05-16T21:52:24.977Z,101438.36
2018-05-16T21:55:03.391Z,101435.73
2018-05-16T21:57:40.519Z,101444.38
2018-05-16T22:00:27.497Z,101426.25
2018-05-16T22:02:58.268Z,101448.22
2018-05-16T22:05:29.049Z,101419.89
2018-05-16T22:10:44.880Z,101441.36
2018-05-16T22:13:17.442Z,101437.41
2018-05-16T22:15:49.291Z,101436.67
2018-05-16T22:18:23.235Z,101439.47
2018-05-16T22:20:54.009Z,101446.17
2018-05-16T22:23:29.057Z,101442.72
2018-05-16T22:26:03.450Z,101453.52
2018-05-16T22:28:39.495Z,101449.16
2018-05-16T22:31:19.564Z,101447.22
2018-05-16T22:33:56.553Z,101454.76
2018-05-16T22:36:35.952Z,101458.39
2018-05-16T22:39:18.840Z,101454.61
2018-05-16T22:41:58.676Z,101449.41
2018-05-16T22:44:29.910Z,101459.12
2018-05-16T22:49:57.610Z,101467.51
2018-05-16T22:52:28.319Z,101483.41
2018-05-16T22:54:58.691Z,101484.79
2018-05-16T22:57:29.058Z,101484.32
2018-05-16T22:59:59.798Z,101483.86
2018-05-16T23:02:31.826Z,101477.82
2018-05-16T23:05:04.154Z,101488.30
2018-05-16T23:07:34.616Z,101484.20
2018-05-16T23:10:05.160Z,101476.26
2018-05-16T23:12:35.892Z,101480.82
2018-05-16T23:15:07.114Z,101479.59
2018-05-16T23:17:42.354Z,101471.84
2018-05-16T23:20:15.437Z,101490.40
2018-05-16T23:22:46.175Z,101485.88
2018-05-16T23:25:16.677Z,101479.91
2018-05-16T23:27:47.207Z,101482.86
2018-05-16T23:30:18.303Z,101471.09
2018-05-16T23:32:51.479Z,101481.55
2018-05-16T23:35:33.929Z,101474.97
2018-05-16T23:38:05.742Z,101477.97
2018-05-16T23:40:45.067Z,101477.06
2018-05-16T23:43:17.857Z,101478.20
2018-05-16T23:45:49.096Z,101472.84
2018-05-16T23:48:19.497Z,101477.87
2018-05-16T23:50:50.279Z,101475.33
2018-05-16T23:53:20.639Z,101477.27
2018-05-16T23:55:51.703Z,101480.22
2018-05-16T23:58:23.172Z,101486.25
